Time;durP1;ratioP1;P1;durP2;ratioP2;P2;SDS_P1;SDS_P2;PMS_P1;PMS_P2;Temp;Humidity;BMP_temperature;BMP_pressure;BME280_temperature;BME280_humidity;BME280_pressure;Samples;Min_cycle;Max_cycle;Signal;HPM_P1;HPM_P2
2023/06/15 00:01:05;;;;;;;9.32;3.42;;;;;;;19.93;100.00;98692.44;5158234;27;20043;-59
2023/06/15 00:03:31;;;;;;;6.60;3.20;;;;;;;20.11;100.00;98698.25;5158323;27;20047;-53
2023/06/15 00:05:57;;;;;;;9.23;3.40;;;;;;;20.13;100.00;98695.81;5158054;27;20137;-54
2023/06/15 00:08:23;;;;;;;5.28;3.30;;;;;;;20.12;100.00;98685.91;5158437;27;20056;-51
2023/06/15 00:10:49;;;;;;;8.38;3.92;;;;;;;20.22;100.00;98695.94;5157935;27;20046;-52
2023/06/15 00:13:16;;;;;;;8.50;3.70;;;;;;;20.14;100.00;98680.69;5158387;27;20190;-56
2023/06/15 00:15:42;;;;;;;4.55;3.53;;;;;;;20.05;100.00;98652.72;5159280;27;20137;-55
2023/06/15 00:18:08;;;;;;;5.75;3.47;;;;;;;20.02;100.00;98664.72;5160435;27;20389;-57
2023/06/15 00:20:34;;;;;;;9.32;3.75;;;;;;;20.01;100.00;98659.63;5158277;27;20133;-57
2023/06/15 00:23:01;;;;;;;10.70;3.72;;;;;;;19.93;100.00;98659.03;5158012;27;20146;-51
2023/06/15 00:25:27;;;;;;;7.90;3.90;;;;;;;19.82;100.00;98631.50;5158108;27;20047;-58
2023/06/15 00:27:53;;;;;;;11.90;3.33;;;;;;;19.93;100.00;98640.34;5157958;27;20141;-55
2023/06/15 00:30:19;;;;;;;9.13;4.72;;;;;;;20.06;100.00;98659.88;5160129;27;20088;-53
2023/06/15 00:32:45;;;;;;;16.08;4.00;;;;;;;19.80;100.00;98633.19;5161466;27;20183;-51
2023/06/15 00:35:11;;;;;;;12.25;3.67;;;;;;;19.97;100.00;98643.81;5161819;27;20085;-51
2023/06/15 00:37:37;;;;;;;8.65;3.00;;;;;;;19.82;100.00;98631.50;5161293;27;20141;-52
2023/06/15 00:40:05;;;;;;;11.15;3.65;;;;;;;19.96;100.00;98652.59;5161764;27;20129;-55
2023/06/15 00:42:31;;;;;;;10.30;3.85;;;;;;;19.77;100.00;98640.41;5161270;27;20050;-53
2023/06/15 00:44:57;;;;;;;7.13;4.03;;;;;;;19.74;100.00;98642.06;5161737;27;20051;-52
2023/06/15 00:47:24;;;;;;;13.63;3.50;;;;;;;19.88;100.00;98643.66;5161068;27;20047;-55
2023/06/15 00:49:50;;;;;;;6.60;3.63;;;;;;;19.86;100.00;98642.53;5161345;27;20061;-55
2023/06/15 00:52:17;;;;;;;4.57;3.55;;;;;;;19.72;100.00;98644.50;5161141;27;20057;-57
2023/06/15 00:54:44;;;;;;;6.65;3.80;;;;;;;19.61;100.00;98618.19;5161231;27;20047;-53
2023/06/15 00:57:12;;;;;;;8.23;3.55;;;;;;;19.73;100.00;98623.81;5161362;27;20190;-57
2023/06/15 00:59:38;;;;;;;6.85;3.35;;;;;;;19.85;100.00;98633.41;5161129;27;20054;-55
2023/06/15 01:02:05;;;;;;;6.38;3.42;;;;;;;19.87;100.00;98641.34;5161325;27;20057;-58
2023/06/15 01:04:31;;;;;;;8.05;3.63;;;;;;;19.87;100.00;98642.09;5160980;27;20133;-60
2023/06/15 01:07:02;;;;;;;13.18;3.95;;;;;;;19.75;100.00;98609.47;5161190;27;20161;-53
2023/06/15 01:09:30;;;;;;;6.95;3.75;;;;;;;19.77;100.00;98634.06;5160994;27;20046;-55
2023/06/15 01:11:58;;;;;;;4.57;3.35;;;;;;;19.74;100.00;98630.16;5161306;27;20110;-55
2023/06/15 01:14:28;;;;;;;8.13;3.55;;;;;;;19.80;100.00;98638.75;5160632;27;20407;-53
2023/06/15 01:16:59;;;;;;;10.63;4.07;;;;;;;19.76;100.00;98636.06;5160663;27;20430;-55
2023/06/15 01:19:39;;;;;;;6.90;3.63;;;;;;;19.69;100.00;98645.38;5160975;27;20137;-57
2023/06/15 01:22:15;;;;;;;7.82;3.92;;;;;;;19.44;100.00;98586.88;5160797;27;20331;-54
2023/06/15 01:24:48;;;;;;;6.15;3.42;;;;;;;19.33;100.00;98598.28;5160990;27;20060;-58
2023/06/15 01:27:15;;;;;;;8.23;3.38;;;;;;;19.39;100.00;98604.06;5160577;27;20137;-56
2023/06/15 01:29:41;;;;;;;8.85;4.07;;;;;;;19.56;100.00;98608.38;5160940;27;20047;-55
2023/06/15 01:32:09;;;;;;;7.45;3.95;;;;;;;19.40;100.00;98609.19;5160520;27;20051;-56
2023/06/15 01:34:36;;;;;;;7.32;3.88;;;;;;;19.35;100.00;98620.06;5160925;27;20057;-57
2023/06/15 01:37:02;;;;;;;7.13;3.70;;;;;;;19.49;100.00;98617.69;5160601;27;20061;-61
2023/06/15 01:39:28;;;;;;;5.85;3.92;;;;;;;19.34;100.00;98610.16;5160608;27;20050;-58
2023/06/15 01:41:55;;;;;;;8.82;3.92;;;;;;;19.30;100.00;98579.69;5159978;27;20138;-53
2023/06/15 01:44:22;;;;;;;8.68;3.80;;;;;;;19.41;100.00;98607.97;5160674;27;20150;-55
2023/06/15 01:46:48;;;;;;;8.80;4.10;;;;;;;18.99;100.00;98596.78;5160530;27;20137;-56
2023/06/15 01:49:14;;;;;;;5.40;3.35;;;;;;;18.98;100.00;98583.31;5160403;27;20327;-58
2023/06/15 01:51:41;;;;;;;6.35;3.50;;;;;;;18.93;100.00;98564.41;5160432;27;20057;-53
2023/06/15 01:54:07;;;;;;;13.32;4.13;;;;;;;18.90;100.00;98559.72;5160146;27;20050;-55
2023/06/15 01:56:33;;;;;;;6.78;3.38;;;;;;;18.92;100.00;98555.25;5160502;27;20047;-59
2023/06/15 01:58:59;;;;;;;10.82;3.92;;;;;;;18.76;100.00;98533.88;5160023;27;20062;-58
2023/06/15 02:01:25;;;;;;;6.78;3.80;;;;;;;18.80;100.00;98537.31;5160521;27;20042;-54
2023/06/15 02:03:53;;;;;;;7.15;3.92;;;;;;;18.65;100.00;98497.22;5159882;27;20051;-54
2023/06/15 02:06:19;;;;;;;9.57;5.85;;;;;;;18.62;100.00;98503.63;5160312;27;20110;-54
2023/06/15 02:08:45;;;;;;;7.90;4.05;;;;;;;18.71;100.00;98514.13;5160178;27;20050;-55
2023/06/15 02:11:10;;;;;;;10.25;5.32;;;;;;;18.57;100.00;98504.19;5160073;27;20430;-51
2023/06/15 02:13:36;;;;;;;5.50;4.15;;;;;;;18.50;100.00;98482.94;5159884;27;20046;-51
2023/06/15 02:16:03;;;;;;;7.93;4.00;;;;;;;18.45;100.00;98471.56;5159953;27;20133;-53
2023/06/15 02:18:30;;;;;;;8.57;4.22;;;;;;;18.21;100.00;98448.78;5159947;27;20064;-52
2023/06/15 02:20:56;;;;;;;7.80;4.25;;;;;;;18.22;100.00;98430.91;5159837;27;20043;-55
2023/06/15 02:23:22;;;;;;;7.60;3.92;;;;;;;18.24;100.00;98440.38;5160066;27;20058;-55
2023/06/15 02:25:48;;;;;;;6.68;3.97;;;;;;;18.31;100.00;98459.59;5159580;27;20047;-56
2023/06/15 02:28:14;;;;;;;10.52;4.43;;;;;;;18.25;100.00;98477.19;5159991;27;20055;-58
2023/06/15 02:30:40;;;;;;;7.85;4.10;;;;;;;18.13;100.00;98459.28;5159530;27;20046;-56
2023/06/15 02:33:07;;;;;;;9.50;4.07;;;;;;;18.14;100.00;98452.50;5159905;27;20093;-53
2023/06/15 02:35:34;;;;;;;4.70;3.75;;;;;;;18.10;100.00;98444.28;5159607;27;20133;-58
2023/06/15 02:38:00;;;;;;;6.18;3.95;;;;;;;18.24;100.00;98456.22;5159650;27;20047;-55
2023/06/15 02:40:26;;;;;;;12.77;4.32;;;;;;;18.23;100.00;98457.47;5159461;27;20053;-53
2023/06/15 02:42:52;;;;;;;7.60;4.05;;;;;;;18.47;100.00;98466.38;5159517;27;20047;-53
2023/06/15 02:45:18;;;;;;;8.45;4.13;;;;;;;18.54;100.00;98510.59;5159678;27;20194;-51
2023/06/15 02:47:44;;;;;;;6.32;4.25;;;;;;;18.60;100.00;98519.97;5159419;27;20125;-52
2023/06/15 02:50:10;;;;;;;5.55;3.88;;;;;;;18.47;100.00;98514.31;5159330;27;20047;-52
2023/06/15 02:52:37;;;;;;;10.13;5.65;;;;;;;18.32;100.00;98502.00;5158645;27;20043;-59
2023/06/15 02:55:04;;;;;;;9.65;4.13;;;;;;;18.42;100.00;98522.38;5158895;27;20411;-59
2023/06/15 02:57:30;;;;;;;5.63;3.72;;;;;;;18.18;100.00;98483.69;5159113;27;20134;-57
2023/06/15 02:59:56;;;;;;;6.22;4.30;;;;;;;18.31;100.00;98498.44;5159553;27;20107;-58
2023/06/15 03:02:22;;;;;;;8.63;3.97;;;;;;;18.26;100.00;98532.28;5159212;27;20054;-56
2023/06/15 03:04:50;;;;;;;6.60;3.83;;;;;;;18.24;100.00;98493.06;5159250;27;20058;-55
2023/06/15 03:07:35;;;;;;;12.07;5.32;;;;;;;18.27;100.00;98506.09;5158870;27;20047;-56
2023/06/15 03:10:03;;;;;;;9.48;3.90;;;;;;;18.08;100.00;98487.50;5159084;27;20195;-55
2023/06/15 03:12:28;;;;;;;6.28;3.83;;;;;;;18.24;100.00;98517.28;5160974;27;20050;-58
2023/06/15 03:14:54;;;;;;;7.78;4.15;;;;;;;18.14;100.00;98499.66;5160238;27;20119;-54
2023/06/15 03:17:21;;;;;;;10.93;5.47;;;;;;;18.25;100.00;98508.50;5159276;27;20088;-53
2023/06/15 03:19:48;;;;;;;7.15;4.35;;;;;;;18.51;100.00;98536.44;5159069;27;20050;-54
2023/06/15 03:22:15;;;;;;;7.93;4.20;;;;;;;18.55;100.00;98584.31;5159247;27;20046;-58
2023/06/15 03:24:43;;;;;;;8.32;4.43;;;;;;;18.80;100.00;98570.66;5158916;27;20082;-54
2023/06/15 03:27:10;;;;;;;5.25;4.50;;;;;;;18.75;100.00;98604.47;5159094;27;20126;-50
2023/06/15 03:29:37;;;;;;;7.35;4.53;;;;;;;19.10;100.00;98607.59;5158869;27;20141;-55
2023/06/15 03:32:04;;;;;;;7.53;4.25;;;;;;;19.03;100.00;98678.00;5158535;27;20046;-55
2023/06/15 03:34:29;;;;;;;7.05;4.57;;;;;;;19.79;100.00;98676.09;5158782;27;20137;-57
2023/06/15 03:36:55;;;;;;;16.02;4.78;;;;;;;20.29;100.00;98745.06;5158329;27;20484;-60
2023/06/15 03:39:22;;;;;;;9.75;4.40;;;;;;;20.44;100.00;98788.00;5158849;27;20042;-58
2023/06/15 03:41:48;;;;;;;5.50;3.97;;;;;;;21.93;100.00;98847.25;5158504;27;20064;-59
2023/06/15 03:44:15;;;;;;;6.13;4.00;;;;;;;21.79;100.00;98868.81;5158840;27;20050;-55
2023/06/15 03:46:41;;;;;;;11.93;4.35;;;;;;;22.25;100.00;98871.28;5158269;27;20095;-57
2023/06/15 03:49:07;;;;;;;9.85;3.92;;;;;;;22.77;100.00;98912.56;5158912;27;20114;-59
2023/06/15 03:51:33;;;;;;;5.97;4.20;;;;;;;22.82;100.00;98918.78;5158290;27;20054;-55
2023/06/15 03:53:59;;;;;;;10.10;4.18;;;;;;;23.32;100.00;98919.78;5158604;27;20051;-53
2023/06/15 03:56:25;;;;;;;5.05;3.45;;;;;;;23.06;100.00;98919.94;5158067;27;20416;-57
2023/06/15 03:58:51;;;;;;;7.40;3.55;;;;;;;22.73;100.00;98923.09;5158072;27;20061;-58
2023/06/15 04:01:19;;;;;;;11.52;4.30;;;;;;;22.54;100.00;98908.16;5158715;27;20078;-58
2023/06/15 04:03:45;;;;;;;14.80;3.90;;;;;;;23.26;100.00;98914.00;5158048;27;20050;-59
2023/06/15 04:06:11;;;;;;;6.57;4.15;;;;;;;23.49;100.00;98916.31;5158003;27;20066;-55
2023/06/15 04:08:37;;;;;;;5.90;3.50;;;;;;;24.12;98.36;98950.63;5158107;27;20046;-53
2023/06/15 04:11:03;;;;;;;8.30;3.75;;;;;;;24.96;92.05;98962.75;5158372;27;20043;-55
2023/06/15 04:13:29;;;;;;;6.30;4.00;;;;;;;25.32;87.91;98968.38;5157919;27;20060;-55
2023/06/15 04:15:55;;;;;;;13.77;4.03;;;;;;;25.31;88.21;98974.44;5158309;27;20390;-52
2023/06/15 04:18:22;;;;;;;12.55;5.38;;;;;;;25.39;86.75;98972.88;5157900;27;20078;-51
2023/06/15 04:20:48;;;;;;;6.70;4.68;;;;;;;25.56;84.99;98971.28;5158136;27;20054;-57
2023/06/15 04:23:14;;;;;;;8.98;4.97;;;;;;;25.99;85.02;98971.28;5157766;27;20107;-58
2023/06/15 04:25:40;;;;;;;8.80;5.15;;;;;;;26.62;80.19;98980.63;5158230;27;20145;-56
2023/06/15 04:28:10;;;;;;;10.93;5.20;;;;;;;27.00;77.08;98984.75;5157654;27;20481;-51
2023/06/15 04:30:38;;;;;;;19.42;4.97;;;;;;;26.84;77.29;98988.00;5157553;27;20412;-57
2023/06/15 04:33:04;;;;;;;8.50;4.95;;;;;;;26.19;80.00;98981.97;5157915;27;20055;-55
2023/06/15 04:35:31;;;;;;;9.90;4.57;;;;;;;27.26;76.37;98987.03;5157567;27;20051;-53
2023/06/15 04:37:58;;;;;;;7.93;4.75;;;;;;;27.76;74.33;98993.59;5157891;27;20137;-50
2023/06/15 04:40:24;;;;;;;9.38;4.45;;;;;;;27.26;73.21;98990.63;5157732;27;20051;-56
2023/06/15 04:42:52;;;;;;;8.75;4.93;;;;;;;27.01;73.42;98993.94;5157996;27;20055;-58
2023/06/15 04:45:18;;;;;;;5.43;4.28;;;;;;;26.95;75.31;98996.66;5157630;27;20050;-53
2023/06/15 04:47:43;;;;;;;6.95;4.50;;;;;;;26.72;76.24;98981.34;5157901;27;20261;-50
2023/06/15 04:50:13;;;;;;;8.35;4.82;;;;;;;26.07;78.77;98980.94;5157454;27;20175;-51
2023/06/15 04:52:40;;;;;;;10.15;4.88;;;;;;;26.80;76.01;98981.78;5157822;27;20057;-55
2023/06/15 04:55:06;;;;;;;11.88;5.28;;;;;;;26.93;76.96;98979.47;5157278;27;20349;-58
2023/06/15 04:57:32;;;;;;;10.50;4.68;;;;;;;27.65;72.63;98987.72;5157475;27;20137;-60
2023/06/15 04:59:58;;;;;;;12.73;5.43;;;;;;;28.34;70.22;98993.94;5157532;27;20057;-55
2023/06/15 05:02:24;;;;;;;5.85;4.28;;;;;;;28.36;69.37;98986.56;5157315;27;20043;-56
2023/06/15 05:04:50;;;;;;;7.80;3.85;;;;;;;27.92;69.93;98989.47;5157355;27;20050;-50
2023/06/15 05:07:16;;;;;;;7.40;3.97;;;;;;;27.44;70.63;98993.25;5157021;27;20050;-59
2023/06/15 05:09:42;;;;;;;6.47;3.85;;;;;;;28.90;67.00;98983.44;5157085;27;20110;-60
2023/06/15 05:12:09;;;;;;;6.18;4.18;;;;;;;29.38;65.07;98999.09;5157061;27;20051;-58
2023/06/15 05:14:35;;;;;;;6.90;4.15;;;;;;;29.21;66.17;98990.47;5157245;27;20082;-57
2023/06/15 05:17:03;;;;;;;8.48;3.80;;;;;;;30.23;61.72;99004.25;5158483;27;20404;-60
2023/06/15 05:19:29;;;;;;;7.28;3.70;;;;;;;30.16;62.13;98996.97;5160983;27;20054;-56
2023/06/15 05:21:58;;;;;;;7.32;3.60;;;;;;;30.52;60.18;98999.50;5160345;27;20149;-61
2023/06/15 05:24:24;;;;;;;7.20;3.53;;;;;;;29.93;59.21;98998.84;5160708;27;20046;-53
2023/06/15 05:26:51;;;;;;;5.55;3.65;;;;;;;30.19;59.52;98998.03;5160718;27;20050;-60
2023/06/15 05:29:17;;;;;;;7.50;3.72;;;;;;;30.13;58.79;98997.97;5160538;27;20099;-62
2023/06/15 05:31:43;;;;;;;7.13;3.47;;;;;;;29.39;60.48;98992.97;5160511;27;20046;-57
2023/06/15 05:34:09;;;;;;;4.97;2.92;;;;;;;29.51;60.15;99000.25;5160162;27;20403;-58
2023/06/15 05:36:36;;;;;;;13.55;3.60;;;;;;;30.22;60.26;98999.84;5160306;27;20099;-57
2023/06/15 05:39:03;;;;;;;5.57;3.22;;;;;;;30.41;59.42;98997.41;5160273;27;20133;-59
2023/06/15 05:41:29;;;;;;;8.63;3.58;;;;;;;28.37;60.78;99007.06;5160670;27;20047;-62
2023/06/15 05:43:56;;;;;;;8.00;3.13;;;;;;;29.97;59.43;99005.03;5160122;27;20055;-57
2023/06/15 05:46:22;;;;;;;8.80;3.42;;;;;;;30.30;60.17;99012.25;5160532;27;20055;-62
2023/06/15 05:48:48;;;;;;;5.07;3.25;;;;;;;29.71;59.24;99009.97;5159911;27;20054;-57
2023/06/15 05:51:13;;;;;;;5.68;3.28;;;;;;;30.84;57.16;99012.31;5160510;27;20195;-53
2023/06/15 05:53:39;;;;;;;8.25;3.75;;;;;;;31.40;56.63;99012.50;5159882;27;20423;-52
2023/06/15 05:56:05;;;;;;;4.47;3.15;;;;;;;31.83;56.93;99020.78;5160179;27;20142;-55
2023/06/15 05:58:31;;;;;;;4.57;3.30;;;;;;;31.01;57.13;99018.03;5161401;27;20047;-57
2023/06/15 06:00:58;;;;;;;7.18;3.50;;;;;;;31.04;57.81;99014.19;5160125;27;20070;-57
2023/06/15 06:03:23;;;;;;;7.70;3.30;;;;;;;31.21;57.72;99019.13;5160060;27;20057;-51
2023/06/15 06:05:50;;;;;;;7.25;3.50;;;;;;;30.82;60.13;99012.03;5159976;27;20074;-54
2023/06/15 06:08:17;;;;;;;8.60;3.50;;;;;;;31.59;57.46;99017.66;5160043;27;20050;-58
2023/06/15 06:10:43;;;;;;;5.25;3.40;;;;;;;31.44;57.30;99020.75;5159503;27;20046;-54
2023/06/15 06:13:09;;;;;;;4.38;3.38;;;;;;;31.40;57.67;99020.22;5160083;27;20054;-57
2023/06/15 06:15:35;;;;;;;6.28;3.38;;;;;;;31.95;56.84;99030.09;5159541;27;20294;-62
2023/06/15 06:18:02;;;;;;;8.23;3.60;;;;;;;29.60;59.53;99016.28;5159951;27;20056;-63
2023/06/15 06:20:28;;;;;;;24.20;3.90;;;;;;;31.69;57.65;99019.00;5159388;27;20191;-60
2023/06/15 06:22:54;;;;;;;10.45;3.78;;;;;;;30.69;57.27;99014.50;5159551;27;20049;-60
2023/06/15 06:25:20;;;;;;;5.20;3.00;;;;;;;31.31;57.08;99020.44;5159222;27;20046;-56
2023/06/15 06:27:46;;;;;;;9.35;3.70;;;;;;;31.36;56.94;99019.72;5158896;27;20047;-56
2023/06/15 06:30:12;;;;;;;5.90;3.33;;;;;;;31.89;55.66;99020.84;5159525;27;20138;-56
2023/06/15 06:32:38;;;;;;;9.75;3.50;;;;;;;32.22;55.53;99017.16;5159337;27;20142;-60
2023/06/15 06:35:05;;;;;;;4.38;3.20;;;;;;;32.44;55.33;99026.97;5159209;27;20055;-61
2023/06/15 06:37:31;;;;;;;7.30;3.65;;;;;;;31.98;56.24;99017.72;5159069;27;20057;-59
2023/06/15 06:39:57;;;;;;;7.95;3.67;;;;;;;32.20;55.63;99021.84;5159517;27;20133;-55
2023/06/15 06:42:24;;;;;;;7.05;3.70;;;;;;;31.81;56.92;99016.91;5159079;27;20069;-53
2023/06/15 06:44:50;;;;;;;15.65;3.75;;;;;;;31.67;56.17;99009.44;5159593;27;20143;-56
2023/06/15 06:47:16;;;;;;;9.30;3.60;;;;;;;31.85;55.63;99006.84;5159049;27;20068;-56
2023/06/15 06:49:42;;;;;;;9.95;3.72;;;;;;;32.42;55.57;99016.13;5159359;27;20418;-55
2023/06/15 06:52:08;;;;;;;8.82;3.70;;;;;;;31.91;55.84;99011.78;5158827;27;20320;-59
2023/06/15 06:54:34;;;;;;;11.68;3.42;;;;;;;32.25;54.93;99001.97;5158712;27;20396;-61
2023/06/15 06:57:01;;;;;;;7.10;3.92;;;;;;;31.64;56.06;99017.69;5158522;27;20050;-63
2023/06/15 06:59:27;;;;;;;5.80;3.28;;;;;;;32.03;55.45;99013.34;5158823;27;20061;-57
2023/06/15 07:01:53;;;;;;;6.40;3.22;;;;;;;31.12;56.55;99000.28;5158992;27;20046;-57
2023/06/15 07:04:19;;;;;;;6.97;3.28;;;;;;;30.42;58.52;99004.59;5158779;27;20149;-56
2023/06/15 07:06:45;;;;;;;8.25;3.55;;;;;;;31.97;56.94;99001.22;5159039;27;20392;-57
2023/06/15 07:09:11;;;;;;;10.93;3.22;;;;;;;32.23;55.28;99004.56;5158896;27;20050;-61
2023/06/15 07:11:37;;;;;;;9.05;3.17;;;;;;;30.89;54.74;99007.94;5159057;27;20046;-59
2023/06/15 07:14:03;;;;;;;7.43;3.65;;;;;;;32.09;54.45;99003.56;5158421;27;20183;-62
2023/06/15 07:16:30;;;;;;;10.43;4.05;;;;;;;32.59;55.24;99007.59;5158963;27;20353;-60
2023/06/15 07:18:56;;;;;;;9.32;3.50;;;;;;;31.43;55.81;99002.22;5158751;27;20047;-64
2023/06/15 07:21:22;;;;;;;8.43;3.50;;;;;;;29.87;59.80;98983.13;5158565;27;20434;-60
2023/06/15 07:23:48;;;;;;;8.07;3.30;;;;;;;28.59;62.46;98984.84;5158416;27;20050;-55
2023/06/15 07:26:14;;;;;;;7.45;3.60;;;;;;;30.56;59.02;98995.19;5158464;27;20146;-55
2023/06/15 07:28:40;;;;;;;6.50;3.70;;;;;;;29.30;60.08;98984.66;5158402;27;20184;-56
2023/06/15 07:31:06;;;;;;;6.05;3.75;;;;;;;30.27;61.37;98987.03;5158438;27;20054;-54
2023/06/15 07:33:32;;;;;;;9.70;4.07;;;;;;;30.75;59.10;98989.84;5158401;27;20308;-55
2023/06/15 07:35:58;;;;;;;7.47;3.35;;;;;;;30.92;57.15;98987.09;5158112;27;20406;-57
2023/06/15 07:38:24;;;;;;;7.05;3.58;;;;;;;31.10;57.71;98991.56;5158374;27;20053;-60
2023/06/15 07:40:50;;;;;;;8.77;3.65;;;;;;;30.84;58.53;98991.72;5157294;27;20050;-62
2023/06/15 07:43:16;;;;;;;7.95;3.33;;;;;;;29.85;59.03;98980.03;5158656;27;20137;-62
2023/06/15 07:45:44;;;;;;;8.93;3.67;;;;;;;30.67;59.18;98981.06;5158335;27;20058;-61
2023/06/15 07:48:11;;;;;;;8.65;4.10;;;;;;;29.94;60.53;98977.78;5158287;27;20050;-61
2023/06/15 07:50:37;;;;;;;7.70;3.92;;;;;;;30.43;60.49;98977.88;5158133;27;20047;-59
2023/06/15 07:53:03;;;;;;;13.65;3.67;;;;;;;31.71;58.07;98987.28;5157878;27;20412;-59
2023/06/15 07:55:29;;;;;;;8.00;3.92;;;;;;;31.57;55.60;98987.03;5158167;27;20060;-59
2023/06/15 07:57:55;;;;;;;8.43;3.13;;;;;;;32.29;54.09;98982.63;5157835;27;20050;-62
2023/06/15 08:00:22;;;;;;;8.73;2.90;;;;;;;33.97;51.83;98978.13;5158089;27;20437;-60
2023/06/15 08:02:48;;;;;;;5.20;2.85;;;;;;;34.45;51.17;98987.22;5157676;27;20420;-61
2023/06/15 08:05:15;;;;;;;9.90;3.28;;;;;;;33.91;50.31;98983.06;5158096;27;20050;-56
2023/06/15 08:07:41;;;;;;;4.63;2.78;;;;;;;31.80;53.25;98981.38;5157536;27;20426;-53
2023/06/15 08:10:07;;;;;;;5.78;3.03;;;;;;;32.62;52.86;98978.16;5157983;27;20047;-56
2023/06/15 08:12:33;;;;;;;3.95;3.00;;;;;;;32.12;53.88;98967.69;5157856;27;20043;-54
2023/06/15 08:14:59;;;;;;;6.63;3.13;;;;;;;30.86;55.99;98975.78;5158123;27;20158;-52
2023/06/15 08:17:26;;;;;;;6.18;3.10;;;;;;;30.64;57.03;98972.84;5157595;27;20078;-56
2023/06/15 08:19:52;;;;;;;7.68;3.20;;;;;;;29.34;59.44;98975.97;5158108;27;20051;-55
2023/06/15 08:22:18;;;;;;;7.28;3.28;;;;;;;28.76;61.71;98973.78;5157858;27;20485;-59
2023/06/15 08:24:45;;;;;;;5.95;3.35;;;;;;;28.60;61.81;98972.28;5157606;27;20429;-62
2023/06/15 08:27:11;;;;;;;8.80;3.42;;;;;;;28.65;62.24;98967.22;5158044;27;20058;-60
2023/06/15 08:29:37;;;;;;;5.53;3.60;;;;;;;29.83;60.12;98966.41;5157383;27;20099;-62
2023/06/15 08:32:06;;;;;;;7.38;3.10;;;;;;;28.76;62.39;98976.59;5157939;27;20074;-54
2023/06/15 08:34:32;;;;;;;5.97;3.15;;;;;;;29.75;61.42;98974.56;5159027;27;20442;-59
2023/06/15 08:36:58;;;;;;;4.97;3.20;;;;;;;28.30;62.16;98970.84;5158233;27;20051;-59
2023/06/15 08:39:24;;;;;;;8.15;3.33;;;;;;;29.39;61.05;98959.09;5157361;27;20050;-58
2023/06/15 08:41:53;;;;;;;6.63;3.03;;;;;;;30.73;58.52;98966.97;5157614;27;20082;-59
2023/06/15 08:44:21;;;;;;;7.18;3.53;;;;;;;31.14;56.48;98977.91;5157252;27;20496;-55
2023/06/15 08:46:47;;;;;;;8.82;3.35;;;;;;;30.93;56.42;98968.84;5157821;27;20443;-59
2023/06/15 08:49:13;;;;;;;5.72;3.35;;;;;;;29.22;60.13;98964.53;5157875;27;20058;-61
2023/06/15 08:51:42;;;;;;;8.18;3.17;;;;;;;29.54;59.98;98967.41;5158179;27;20434;-53
2023/06/15 08:54:09;;;;;;;7.13;3.22;;;;;;;30.74;58.06;98967.72;5161150;27;20061;-54
2023/06/15 08:56:38;;;;;;;6.43;3.00;;;;;;;29.66;59.08;98965.50;5160894;27;20050;-59
2023/06/15 08:59:04;;;;;;;7.25;3.15;;;;;;;30.89;56.37;98962.66;5161056;27;20359;-57
2023/06/15 09:01:31;;;;;;;5.57;2.90;;;;;;;30.87;56.32;98959.56;5160938;27;20138;-63
2023/06/15 09:03:57;;;;;;;5.22;3.20;;;;;;;30.00;58.96;98956.00;5161141;27;20046;-61
2023/06/15 09:06:24;;;;;;;6.93;3.08;;;;;;;29.81;59.55;98954.81;5160833;27;20089;-59
2023/06/15 09:08:51;;;;;;;5.22;2.80;;;;;;;30.68;57.65;98959.97;5161204;27;20079;-62
2023/06/15 09:11:18;;;;;;;7.18;3.25;;;;;;;31.09;56.57;98958.84;5160546;27;20081;-53
2023/06/15 09:13:45;;;;;;;4.03;3.28;;;;;;;30.76;57.85;98963.16;5161059;27;20106;-58
2023/06/15 09:16:11;;;;;;;8.27;3.65;;;;;;;31.77;55.48;98956.91;5160785;27;20057;-53
2023/06/15 09:18:44;;;;;;;18.58;3.90;;;;;;;32.17;54.73;98947.06;5160762;27;20137;-56
2023/06/15 09:21:12;;;;;;;6.20;3.38;;;;;;;32.43;54.50;98957.34;5160750;27;20098;-53
2023/06/15 09:23:40;;;;;;;6.63;3.13;;;;;;;32.04;53.49;98950.44;5160484;27;20046;-54
2023/06/15 09:26:07;;;;;;;7.25;3.40;;;;;;;31.00;55.77;98942.13;5160779;27;20184;-56
2023/06/15 09:28:34;;;;;;;7.07;3.28;;;;;;;31.32;55.56;98949.16;5160243;27;20099;-59
2023/06/15 09:31:00;;;;;;;7.80;3.45;;;;;;;31.72;54.99;98947.09;5160565;27;20122;-60
2023/06/15 09:33:26;;;;;;;6.03;3.03;;;;;;;30.92;54.97;98934.13;5160398;27;20042;-58
2023/06/15 09:35:57;;;;;;;9.60;2.80;;;;;;;31.99;53.37;98951.25;5160590;27;20141;-59
2023/06/15 09:38:23;;;;;;;4.93;2.95;;;;;;;31.39;53.52;98933.72;5160063;27;20443;-58
2023/06/15 09:40:49;;;;;;;4.85;3.00;;;;;;;30.50;55.77;98942.69;5160448;27;20141;-56
2023/06/15 09:43:18;;;;;;;5.03;2.85;;;;;;;30.39;55.31;98947.00;5160342;27;20408;-51
2023/06/15 09:45:50;;;;;;;5.43;2.75;;;;;;;30.88;54.47;98936.41;5159839;27;20416;-59
2023/06/15 09:48:16;;;;;;;5.77;2.90;;;;;;;30.38;55.93;98936.97;5160405;27;20050;-58
2023/06/15 09:50:42;;;;;;;4.82;2.80;;;;;;;31.80;54.10;98948.13;5159978;27;20146;-50
2023/06/15 09:53:12;;;;;;;4.38;2.55;;;;;;;31.91;53.27;98935.25;5160312;27;20050;-51
2023/06/15 09:55:43;;;;;;;6.97;3.08;;;;;;;30.90;53.91;98933.84;5160067;27;20446;-57
2023/06/15 09:58:09;;;;;;;5.38;3.00;;;;;;;32.19;53.03;98940.88;5160166;27;20058;-56
2023/06/15 10:00:36;;;;;;;6.53;2.90;;;;;;;31.23;54.01;98946.53;5159815;27;20061;-52
2023/06/15 10:03:05;;;;;;;3.97;2.90;;;;;;;29.74;56.74;98938.34;5159502;27;20149;-52
2023/06/15 10:05:34;;;;;;;9.15;3.10;;;;;;;29.90;56.41;98934.09;5159599;27;20062;-52
2023/06/15 10:08:01;;;;;;;7.70;2.83;;;;;;;29.90;56.97;98936.91;5159692;27;20057;-55
2023/06/15 10:10:30;;;;;;;7.88;2.85;;;;;;;29.48;58.01;98936.28;5159675;27;20392;-58
2023/06/15 10:13:00;;;;;;;6.75;2.78;;;;;;;28.72;59.87;98927.28;5159701;27;20137;-55
2023/06/15 10:15:28;;;;;;;4.88;3.05;;;;;;;28.38;62.07;98924.03;5159688;27;20057;-58
2023/06/15 10:17:56;;;;;;;3.85;2.88;;;;;;;28.81;60.58;98927.91;5159605;27;20065;-56
2023/06/15 10:20:24;;;;;;;7.57;2.80;;;;;;;28.57;60.84;98919.69;5159782;27;20141;-56
2023/06/15 10:22:57;;;;;;;8.15;3.00;;;;;;;28.43;60.62;98933.88;5159579;27;20115;-58
2023/06/15 10:25:24;;;;;;;6.22;2.90;;;;;;;28.47;61.64;98926.75;5159713;27;20050;-56
2023/06/15 10:27:50;;;;;;;4.70;2.72;;;;;;;28.76;59.88;98920.19;5158978;27;20419;-52
2023/06/15 10:30:30;;;;;;;4.85;2.88;;;;;;;29.63;58.80;98924.13;5159502;27;20096;-56
2023/06/15 10:33:18;;;;;;;10.40;3.03;;;;;;;30.11;56.92;98924.19;5159271;27;20388;-58
2023/06/15 10:35:50;;;;;;;4.60;2.80;;;;;;;30.46;55.39;98928.78;5159079;27;20146;-59
2023/06/15 10:38:29;;;;;;;6.72;3.20;;;;;;;29.95;56.20;98917.16;5159525;27;20053;-52
2023/06/15 10:40:55;;;;;;;5.43;2.70;;;;;;;29.75;57.13;98920.88;5159393;27;20133;-57
2023/06/15 10:43:25;;;;;;;7.10;2.88;;;;;;;30.79;56.08;98924.53;5159647;27;20081;-54
2023/06/15 10:45:52;;;;;;;5.53;2.65;;;;;;;30.47;55.34;98919.78;5159394;27;20090;-53
2023/06/15 10:48:23;;;;;;;4.03;2.60;;;;;;;31.33;54.03;98921.59;5159546;27;20057;-53
2023/06/15 10:50:51;;;;;;;7.38;3.00;;;;;;;31.06;54.84;98914.59;5158883;27;20046;-52
2023/06/15 10:53:25;;;;;;;5.03;2.60;;;;;;;31.18;54.92;98905.59;5159055;27;20062;-57
2023/06/15 10:55:55;;;;;;;5.15;3.10;;;;;;;31.10;55.11;98917.94;5158911;27;20062;-53
2023/06/15 10:58:21;;;;;;;8.40;2.90;;;;;;;31.01;54.17;98913.28;5159064;27;20050;-50
2023/06/15 11:01:04;;;;;;;8.80;3.10;;;;;;;29.61;56.96;98904.84;5159295;27;20085;-50
2023/06/15 11:03:32;;;;;;;9.57;3.05;;;;;;;29.29;57.18;98904.84;5158822;27;20440;-58
2023/06/15 11:06:07;;;;;;;8.65;2.70;;;;;;;28.50;59.31;98911.66;5158890;27;20169;-59
2023/06/15 11:08:44;;;;;;;7.68;2.70;;;;;;;28.27;60.08;98904.94;5158517;27;20042;-51
2023/06/15 11:11:11;;;;;;;7.35;2.88;;;;;;;28.17;61.83;98899.94;5158935;27;20153;-54
2023/06/15 11:13:54;;;;;;;8.40;3.28;;;;;;;27.32;64.05;98895.78;5158193;27;20312;-58
2023/06/15 11:16:24;;;;;;;3.35;2.67;;;;;;;27.63;63.60;98892.47;5158350;27;20057;-56
2023/06/15 11:19:27;;;;;;;7.35;3.25;;;;;;;27.33;63.64;98902.22;5158807;27;20060;-54
2023/06/15 11:22:01;;;;;;;6.47;3.05;;;;;;;27.25;64.40;98886.97;5158172;27;20082;-57
2023/06/15 11:24:29;;;;;;;6.68;2.97;;;;;;;27.17;64.07;98890.19;5158630;27;20141;-53
2023/06/15 11:26:55;;;;;;;5.85;2.83;;;;;;;27.29;63.21;98896.78;5158891;27;20046;-57
2023/06/15 11:29:22;;;;;;;7.10;3.00;;;;;;;27.44;63.51;98891.13;5158324;27;20047;-55